Time;durP1;ratioP1;P1;durP2;ratioP2;P2;SDS_P1;SDS_P2;PMS_P1;PMS_P2;Temp;Humidity;BMP_temperature;BMP_pressure;BME280_temperature;BME280_humidity;BME280_pressure;Samples;Min_cycle;Max_cycle;Signal;HPM_P1;HPM_P2
2023/11/21 00:01:33;;;;;;;15.77;15.27;;;6.60;99.90;;;;;;5079791;28;20451;-71
2023/11/21 00:04:01;;;;;;;15.00;14.50;;;6.60;99.90;;;;;;5075179;28;21005;-71
2023/11/21 00:06:30;;;;;;;15.90;15.40;;;6.60;99.90;;;;;;5088713;28;20466;-72
2023/11/21 00:08:56;;;;;;;15.57;15.07;;;6.60;99.90;;;;;;5084078;28;20478;-71
2023/11/21 00:11:25;;;;;;;15.77;15.27;;;6.60;99.90;;;;;;5082470;28;20658;-72
2023/11/21 00:13:51;;;;;;;15.70;15.20;;;6.50;99.90;;;;;;5085337;28;20465;-71
2023/11/21 00:16:19;;;;;;;16.50;15.90;;;6.50;99.90;;;;;;5083772;28;20510;-70
2023/11/21 00:18:47;;;;;;;16.73;16.13;;;6.50;99.90;;;;;;5083222;28;20470;-72
2023/11/21 00:21:15;;;;;;;15.97;15.37;;;6.60;99.90;;;;;;5075897;28;20544;-72
2023/11/21 00:23:42;;;;;;;16.03;15.43;;;6.60;99.90;;;;;;5075781;28;20478;-70
2023/11/21 00:26:09;;;;;;;15.43;14.93;;;6.60;99.90;;;;;;5086960;28;20469;-72
2023/11/21 00:28:36;;;;;;;15.70;15.17;;;6.60;99.90;;;;;;5082832;28;20778;-71
2023/11/21 00:31:04;;;;;;;16.20;15.60;;;6.60;99.90;;;;;;5088728;28;20480;-71
2023/11/21 00:33:31;;;;;;;16.37;15.77;;;6.60;99.90;;;;;;5081440;28;20972;-71
2023/11/21 00:35:57;;;;;;;16.07;15.47;;;6.60;99.90;;;;;;5081608;28;20451;-71
2023/11/21 00:38:26;;;;;;;16.07;15.53;;;6.60;99.90;;;;;;5080514;28;20722;-72
2023/11/21 00:40:55;;;;;;;15.40;14.90;;;6.60;99.90;;;;;;5082578;28;20550;-71
2023/11/21 00:43:22;;;;;;;15.83;15.23;;;6.60;99.90;;;;;;5083743;28;20715;-72
2023/11/21 00:45:49;;;;;;;16.73;16.13;;;6.60;99.90;;;;;;5083211;28;20467;-70
2023/11/21 00:48:16;;;;;;;16.27;15.67;;;6.70;99.90;;;;;;5078720;28;20612;-72
2023/11/21 00:50:44;;;;;;;16.20;15.60;;;6.70;99.90;;;;;;5086780;28;20538;-72
2023/11/21 00:53:11;;;;;;;16.77;16.17;;;6.80;99.90;;;;;;5077391;28;20504;-72
2023/11/21 00:55:40;;;;;;;16.77;16.17;;;6.90;99.90;;;;;;5088642;28;21036;-72
2023/11/21 00:58:08;;;;;;;15.90;15.30;;;7.00;99.90;;;;;;5084188;28;20575;-73
2023/11/21 01:00:34;;;;;;;16.30;15.70;;;7.00;99.90;;;;;;5087210;28;20455;-72
2023/11/21 01:03:02;;;;;;;15.93;15.40;;;7.10;99.90;;;;;;5074818;28;20972;-70
2023/11/21 01:05:29;;;;;;;16.07;15.47;;;7.10;99.90;;;;;;5082413;28;20503;-71
2023/11/21 01:07:56;;;;;;;16.67;16.07;;;7.20;99.90;;;;;;5087266;28;20451;-71
2023/11/21 01:10:23;;;;;;;16.70;16.10;;;7.20;99.90;;;;;;5078734;28;20975;-73
2023/11/21 01:12:51;;;;;;;16.37;15.77;;;7.30;99.90;;;;;;5086460;28;20458;-70
2023/11/21 01:15:18;;;;;;;16.50;15.90;;;7.30;99.90;;;;;;5078202;28;20462;-71
2023/11/21 01:17:45;;;;;;;16.13;15.53;;;7.30;99.90;;;;;;5085169;28;20455;-71
2023/11/21 01:20:12;;;;;;;16.00;15.40;;;7.40;99.90;;;;;;5084927;28;20454;-72
2023/11/21 01:22:40;;;;;;;14.80;14.30;;;7.40;99.90;;;;;;5078364;28;20831;-71
2023/11/21 01:25:07;;;;;;;16.30;15.70;;;7.30;99.90;;;;;;5074990;28;20914;-71
2023/11/21 01:27:35;;;;;;;15.60;15.10;;;7.30;99.90;;;;;;5084567;28;20468;-70
2023/11/21 01:30:07;;;;;;;14.60;14.10;;;7.40;99.90;;;;;;5084577;28;20455;-72
2023/11/21 01:32:35;;;;;;;16.23;15.63;;;7.40;99.90;;;;;;5085277;28;21102;-71
2023/11/21 01:35:02;;;;;;;15.50;15.00;;;7.40;99.90;;;;;;5081426;28;20454;-71
2023/11/21 01:37:30;;;;;;;17.20;16.60;;;7.40;99.90;;;;;;5083579;28;20531;-70
2023/11/21 01:39:57;;;;;;;16.50;15.90;;;7.40;99.90;;;;;;5083099;28;21355;-72
2023/11/21 01:42:25;;;;;;;15.77;15.27;;;7.40;99.90;;;;;;5081614;28;20519;-72
2023/11/21 01:44:52;;;;;;;16.17;15.57;;;7.40;99.90;;;;;;5081886;28;20479;-71
2023/11/21 01:47:21;;;;;;;16.20;15.60;;;7.50;99.90;;;;;;5080015;28;20466;-70
2023/11/21 01:49:48;;;;;;;16.80;16.20;;;7.50;99.90;;;;;;5086818;28;20450;-72
2023/11/21 01:52:16;;;;;;;16.67;16.07;;;7.60;99.90;;;;;;5087224;28;20458;-72
2023/11/21 01:54:43;;;;;;;16.80;16.20;;;7.60;99.90;;;;;;5069927;28;20828;-72
2023/11/21 01:57:10;;;;;;;16.67;16.07;;;7.70;99.90;;;;;;5085459;28;20465;-70
2023/11/21 01:59:39;;;;;;;16.37;15.77;;;7.70;99.90;;;;;;5082608;28;21010;-71
2023/11/21 02:02:07;;;;;;;15.50;15.00;;;7.80;99.90;;;;;;5095083;28;20458;-71
2023/11/21 02:04:37;;;;;;;16.80;16.20;;;7.80;99.90;;;;;;5084137;28;20507;-72
2023/11/21 02:07:05;;;;;;;15.60;15.10;;;7.90;99.90;;;;;;5071741;28;20462;-71
2023/11/21 02:09:33;;;;;;;16.20;15.60;;;7.90;99.90;;;;;;5085706;28;20451;-72
2023/11/21 02:12:00;;;;;;;16.30;15.70;;;8.00;99.90;;;;;;5079555;28;21160;-72
2023/11/21 02:14:27;;;;;;;17.90;17.20;;;8.00;99.90;;;;;;5084500;28;20473;-71
2023/11/21 02:16:55;;;;;;;15.57;15.07;;;8.00;99.90;;;;;;5086064;28;20476;-72
2023/11/21 02:19:23;;;;;;;16.57;15.97;;;8.10;99.90;;;;;;5085005;28;20466;-71
2023/11/21 02:22:07;;;;;;;16.70;16.10;;;8.00;99.90;;;;;;5087791;28;20959;-71
2023/11/21 02:24:35;;;;;;;16.13;15.53;;;8.10;99.90;;;;;;5078578;28;20489;-71
2023/11/21 02:27:02;;;;;;;16.67;16.07;;;8.10;99.90;;;;;;5071756;28;20815;-71
2023/11/21 02:29:29;;;;;;;16.80;16.20;;;8.10;99.90;;;;;;5079801;28;20455;-71
2023/11/21 02:31:57;;;;;;;15.10;14.60;;;8.10;99.90;;;;;;5084053;28;21027;-71
2023/11/21 02:34:25;;;;;;;16.47;15.87;;;8.10;99.90;;;;;;5081122;28;20467;-71
2023/11/21 02:36:52;;;;;;;16.70;16.10;;;8.10;99.90;;;;;;5077739;28;20554;-71
2023/11/21 02:39:21;;;;;;;16.20;15.60;;;8.10;99.90;;;;;;5084961;28;20512;-72
2023/11/21 02:41:50;;;;;;;16.03;15.43;;;8.10;99.90;;;;;;5088759;28;20467;-71
2023/11/21 02:44:17;;;;;;;16.40;15.80;;;8.10;99.90;;;;;;5080541;28;20547;-72
2023/11/21 02:46:46;;;;;;;16.13;15.53;;;8.10;99.90;;;;;;5084326;28;20459;-72
2023/11/21 02:49:14;;;;;;;18.10;17.40;;;8.20;99.90;;;;;;5081070;28;20554;-72
2023/11/21 02:51:40;;;;;;;16.97;16.37;;;8.20;99.90;;;;;;5085436;28;20462;-72
2023/11/21 02:54:08;;;;;;;17.00;16.40;;;8.20;99.90;;;;;;5082542;28;20973;-72
2023/11/21 02:56:35;;;;;;;16.30;15.70;;;8.20;99.90;;;;;;5074045;28;20546;-72
2023/11/21 02:59:03;;;;;;;17.50;16.80;;;8.20;99.90;;;;;;5079790;28;20814;-72
2023/11/21 03:01:30;;;;;;;16.00;15.40;;;8.20;99.90;;;;;;5083295;28;20478;-71
2023/11/21 03:03:57;;;;;;;17.00;16.40;;;8.30;99.90;;;;;;5078267;28;20474;-72
2023/11/21 03:06:24;;;;;;;16.90;16.30;;;8.30;99.90;;;;;;5076165;28;20964;-72
2023/11/21 03:08:51;;;;;;;17.40;16.70;;;8.30;99.90;;;;;;5076926;28;20498;-71
2023/11/21 03:11:18;;;;;;;17.50;16.80;;;8.30;99.90;;;;;;5084369;28;20513;-71
2023/11/21 03:13:45;;;;;;;16.23;15.63;;;8.30;99.90;;;;;;5088930;28;20453;-71
2023/11/21 03:16:14;;;;;;;16.40;15.80;;;8.30;99.90;;;;;;5079882;28;20495;-71
2023/11/21 03:18:41;;;;;;;17.20;16.60;;;8.20;99.90;;;;;;5079437;28;20467;-72
2023/11/21 03:21:08;;;;;;;16.80;16.20;;;8.30;99.90;;;;;;5072082;28;20542;-72
2023/11/21 03:23:35;;;;;;;17.40;16.70;;;8.30;99.90;;;;;;5082734;28;20507;-72
2023/11/21 03:26:02;;;;;;;18.13;17.43;;;8.30;99.90;;;;;;5085023;28;20478;-71
2023/11/21 03:28:30;;;;;;;17.30;16.60;;;8.40;99.90;;;;;;5080165;28;20846;-71
2023/11/21 03:30:57;;;;;;;17.03;16.43;;;8.40;99.90;;;;;;5089783;28;20455;-71
2023/11/21 03:33:25;;;;;;;16.60;16.00;;;8.40;99.90;;;;;;5079956;28;20810;-72
2023/11/21 03:35:52;;;;;;;17.10;16.50;;;8.30;99.90;;;;;;5075166;28;20471;-71
2023/11/21 03:38:20;;;;;;;16.20;15.60;;;8.30;99.90;;;;;;5079483;28;20870;-71
2023/11/21 03:40:47;;;;;;;16.37;15.77;;;8.30;99.90;;;;;;5076772;28;20500;-72
2023/11/21 03:43:14;;;;;;;16.10;15.50;;;8.30;99.90;;;;;;5083614;28;20454;-73
2023/11/21 03:45:41;;;;;;;17.60;16.90;;;8.30;99.90;;;;;;5085365;28;20618;-72
2023/11/21 03:48:08;;;;;;;16.80;16.20;;;8.30;99.90;;;;;;5082427;28;20489;-72
2023/11/21 03:50:36;;;;;;;15.30;14.80;;;8.30;99.90;;;;;;5083245;28;20936;-72
2023/11/21 03:53:03;;;;;;;16.40;15.80;;;8.20;99.90;;;;;;5088368;28;20895;-73
2023/11/21 03:55:31;;;;;;;15.20;14.70;;;8.20;99.90;;;;;;5079165;28;20467;-72
2023/11/21 03:57:58;;;;;;;15.97;15.40;;;8.10;99.90;;;;;;5084738;28;20454;-71
2023/11/21 04:00:26;;;;;;;15.47;14.97;;;8.10;99.90;;;;;;5086670;28;20457;-71
2023/11/21 04:02:54;;;;;;;15.57;15.07;;;8.10;99.90;;;;;;5089171;28;20454;-72
2023/11/21 04:05:23;;;;;;;16.10;15.50;;;8.00;99.90;;;;;;5087285;28;20482;-72
2023/11/21 04:07:52;;;;;;;17.40;16.70;;;8.00;99.90;;;;;;5074869;28;20455;-73
2023/11/21 04:10:19;;;;;;;16.87;16.27;;;8.10;99.90;;;;;;5087968;28;20734;-72
2023/11/21 04:12:46;;;;;;;16.17;15.57;;;8.20;99.90;;;;;;5088380;28;20455;-72
2023/11/21 04:15:14;;;;;;;17.23;16.60;;;8.20;99.90;;;;;;5088450;28;20563;-72
2023/11/21 04:17:40;;;;;;;15.60;15.10;;;8.20;99.90;;;;;;5089980;28;21170;-72
2023/11/21 04:20:09;;;;;;;16.47;15.87;;;8.20;99.90;;;;;;5074854;28;20454;-71
2023/11/21 04:22:41;;;;;;;16.70;16.10;;;8.20;99.90;;;;;;5088648;28;20614;-72
2023/11/21 04:25:11;;;;;;;16.73;16.13;;;8.20;99.90;;;;;;5081722;28;20494;-73
2023/11/21 04:27:38;;;;;;;17.43;16.73;;;8.20;99.90;;;;;;5084935;28;20478;-72
2023/11/21 04:30:06;;;;;;;17.47;16.77;;;8.30;99.90;;;;;;5093146;28;20459;-72
2023/11/21 04:32:33;;;;;;;18.00;17.30;;;8.30;99.90;;;;;;5078519;28;20460;-73
2023/11/21 04:35:00;;;;;;;17.67;16.97;;;8.40;99.90;;;;;;5071718;28;20911;-72
2023/11/21 04:37:27;;;;;;;17.70;17.00;;;8.40;99.90;;;;;;5088660;28;20516;-72
2023/11/21 04:39:54;;;;;;;17.83;17.13;;;8.40;99.90;;;;;;5078722;28;20987;-72
2023/11/21 04:42:23;;;;;;;16.87;16.27;;;8.40;99.90;;;;;;5083726;28;20455;-72
2023/11/21 04:44:52;;;;;;;17.27;16.67;;;8.40;99.90;;;;;;5084499;28;20874;-71
2023/11/21 04:47:20;;;;;;;17.80;17.10;;;8.30;99.90;;;;;;5075431;28;20491;-72
2023/11/21 04:49:47;;;;;;;17.60;16.90;;;8.20;99.90;;;;;;5079579;28;21057;-71
2023/11/21 04:52:14;;;;;;;18.80;18.00;;;8.20;99.90;;;;;;5088731;28;21006;-71
2023/11/21 04:54:42;;;;;;;18.00;17.30;;;8.10;99.90;;;;;;5076860;28;20826;-72
2023/11/21 04:57:10;;;;;;;18.10;17.40;;;8.10;99.90;;;;;;5083699;28;20469;-71
2023/11/21 04:59:38;;;;;;;17.77;17.07;;;8.10;99.90;;;;;;5078455;28;20555;-71
2023/11/21 05:02:06;;;;;;;18.07;17.37;;;8.10;99.90;;;;;;5079948;28;20462;-72
2023/11/21 05:04:32;;;;;;;18.57;17.77;;;8.10;99.90;;;;;;5084503;28;20547;-72
2023/11/21 05:07:00;;;;;;;18.70;17.90;;;8.20;99.90;;;;;;5082523;28;20466;-70
2023/11/21 05:09:32;;;;;;;18.90;18.10;;;8.20;99.90;;;;;;5086092;28;20550;-72
2023/11/21 05:11:59;;;;;;;19.77;18.87;;;8.30;99.90;;;;;;5087325;28;20463;-71
2023/11/21 05:14:26;;;;;;;20.30;19.40;;;8.30;99.90;;;;;;5085362;28;20978;-72
2023/11/21 05:16:55;;;;;;;19.27;18.47;;;8.30;99.90;;;;;;5070835;28;20475;-73
2023/11/21 05:19:22;;;;;;;18.40;17.60;;;8.30;99.90;;;;;;5080254;28;21102;-72
2023/11/21 05:21:49;;;;;;;18.70;17.90;;;8.30;99.90;;;;;;5084210;28;20819;-72
2023/11/21 05:24:16;;;;;;;18.70;17.90;;;8.40;99.90;;;;;;5082122;28;20485;-71
2023/11/21 05:26:43;;;;;;;19.10;18.30;;;8.40;99.90;;;;;;5079067;28;20489;-71
2023/11/21 05:29:10;;;;;;;19.10;18.30;;;8.50;99.90;;;;;;5079487;28;20459;-72
2023/11/21 05:31:37;;;;;;;19.13;18.23;;;8.50;99.90;;;;;;5071083;28;20769;-72
2023/11/21 05:34:06;;;;;;;19.37;18.47;;;8.40;99.90;;;;;;5084618;28;21190;-72
2023/11/21 05:36:33;;;;;;;19.30;18.40;;;8.40;99.90;;;;;;5082634;28;20448;-71
2023/11/21 05:39:00;;;;;;;20.17;19.27;;;8.50;99.90;;;;;;5080034;28;20466;-70
2023/11/21 05:41:28;;;;;;;19.90;19.00;;;8.50;99.90;;;;;;5084180;28;20457;-73
2023/11/21 05:43:54;;;;;;;19.83;18.93;;;8.50;99.90;;;;;;5079308;28;20862;-71
2023/11/21 05:46:21;;;;;;;21.30;20.30;;;8.60;99.90;;;;;;5078872;28;21008;-71
2023/11/21 05:48:49;;;;;;;20.20;19.30;;;8.60;99.90;;;;;;5079698;28;20455;-70
2023/11/21 05:51:17;;;;;;;19.07;18.17;;;8.60;99.90;;;;;;5081929;28;20506;-73
2023/11/21 05:53:44;;;;;;;19.50;18.60;;;8.50;99.90;;;;;;5086587;28;21090;-71
2023/11/21 05:56:11;;;;;;;19.27;18.37;;;8.50;99.90;;;;;;5077894;28;20463;-71
2023/11/21 05:58:39;;;;;;;19.60;18.70;;;8.60;99.90;;;;;;5085860;28;20453;-70
2023/11/21 06:01:07;;;;;;;19.40;18.50;;;8.60;99.90;;;;;;5085794;28;20530;-72
2023/11/21 06:03:34;;;;;;;19.73;18.83;;;8.60;99.90;;;;;;5076044;28;20462;-71
2023/11/21 06:06:01;;;;;;;20.00;19.10;;;8.60;99.90;;;;;;5085753;28;20756;-70
2023/11/21 06:08:28;;;;;;;20.30;19.30;;;8.60;99.90;;;;;;5084675;28;20474;-71
2023/11/21 06:10:55;;;;;;;19.87;18.87;;;8.70;99.90;;;;;;5080562;28;20488;-72
2023/11/21 06:13:24;;;;;;;19.60;18.60;;;8.70;99.90;;;;;;5084833;28;20454;-72
2023/11/21 06:15:51;;;;;;;19.07;18.17;;;8.70;99.90;;;;;;5075954;28;20571;-70
2023/11/21 06:18:19;;;;;;;18.50;17.70;;;8.60;99.90;;;;;;5082147;28;20706;-71
2023/11/21 06:20:46;;;;;;;19.60;18.70;;;8.60;99.90;;;;;;5092633;28;20889;-71
2023/11/21 06:23:14;;;;;;;20.47;19.47;;;8.60;99.90;;;;;;5081158;28;20473;-70
2023/11/21 06:25:45;;;;;;;20.10;19.10;;;8.70;99.90;;;;;;5084992;28;20917;-71
2023/11/21 06:28:15;;;;;;;17.67;16.87;;;8.70;99.90;;;;;;5077840;28;20524;-71
2023/11/21 06:30:43;;;;;;;19.37;18.47;;;8.70;99.90;;;;;;5088443;28;20491;-70
2023/11/21 06:33:11;;;;;;;19.77;18.87;;;8.60;99.90;;;;;;5080621;28;20492;-71
2023/11/21 06:35:38;;;;;;;19.60;18.70;;;8.70;99.90;;;;;;5085982;28;20541;-70
2023/11/21 06:38:04;;;;;;;17.60;16.80;;;8.70;99.90;;;;;;5080819;28;20467;-72
2023/11/21 06:40:33;;;;;;;16.23;15.63;;;8.70;99.90;;;;;;5081627;28;20853;-71
2023/11/21 06:43:04;;;;;;;16.73;16.03;;;8.60;99.90;;;;;;5078576;28;20459;-71
2023/11/21 06:45:33;;;;;;;16.70;16.00;;;8.60;99.90;;;;;;5084330;28;20530;-72
2023/11/21 06:48:00;;;;;;;16.30;15.70;;;8.60;99.90;;;;;;5078865;28;20542;-70
2023/11/21 06:50:27;;;;;;;16.40;15.80;;;8.60;99.90;;;;;;5085236;28;20461;-72
2023/11/21 06:52:54;;;;;;;16.10;15.50;;;8.50;99.90;;;;;;5085098;28;20442;-70
2023/11/21 06:55:21;;;;;;;15.40;14.87;;;8.50;99.90;;;;;;5078789;28;20963;-71
2023/11/21 06:57:48;;;;;;;15.87;15.27;;;8.50;99.90;;;;;;5085009;28;20506;-72
2023/11/21 07:00:18;;;;;;;15.30;14.80;;;8.50;99.90;;;;;;5080563;28;20458;-71
2023/11/21 07:02:45;;;;;;;14.97;14.47;;;8.50;99.90;;;;;;5081947;28;20465;-71
2023/11/21 07:05:14;;;;;;;15.40;14.90;;;8.50;99.90;;;;;;5085446;28;21079;-71
2023/11/21 07:07:42;;;;;;;15.50;15.00;;;8.40;99.90;;;;;;5075080;28;20466;-71
2023/11/21 07:10:09;;;;;;;15.50;15.00;;;8.40;99.90;;;;;;5085383;28;20482;-70
2023/11/21 07:12:36;;;;;;;15.50;15.00;;;8.40;99.90;;;;;;5074267;28;20499;-70
2023/11/21 07:15:05;;;;;;;14.70;14.20;;;8.40;99.90;;;;;;5081069;28;20465;-70
2023/11/21 07:17:35;;;;;;;14.90;14.40;;;8.40;99.90;;;;;;5077467;28;20566;-72
2023/11/21 07:20:01;;;;;;;15.70;15.10;;;8.50;99.90;;;;;;5079945;28;20459;-70
2023/11/21 07:22:28;;;;;;;15.20;14.70;;;8.50;99.90;;;;;;5085915;28;20963;-71
2023/11/21 07:24:56;;;;;;;15.40;14.90;;;8.50;99.90;;;;;;5089001;28;20486;-71
2023/11/21 07:27:23;;;;;;;14.57;14.07;;;8.50;99.90;;;;;;5078756;28;21056;-72
2023/11/21 07:29:50;;;;;;;15.27;14.77;;;8.50;99.90;;;;;;5081715;28;20469;-70
2023/11/21 07:32:17;;;;;;;15.20;14.70;;;8.50;99.90;;;;;;5082743;28;20466;-72
2023/11/21 07:34:46;;;;;;;15.27;14.77;;;8.60;99.90;;;;;;5089052;28;20498;-71
2023/11/21 07:37:12;;;;;;;15.00;14.50;;;8.60;99.90;;;;;;5086724;28;20458;-71
2023/11/21 07:39:41;;;;;;;15.73;15.13;;;8.60;99.90;;;;;;5088396;28;20857;-70
2023/11/21 07:42:09;;;;;;;15.10;14.60;;;8.60;99.90;;;;;;5088116;28;20454;-72
2023/11/21 07:44:37;;;;;;;14.73;14.23;;;8.70;99.90;;;;;;5077573;28;20566;-72
2023/11/21 07:47:05;;;;;;;14.50;14.00;;;8.70;99.90;;;;;;5086993;28;20839;-71
2023/11/21 07:49:31;;;;;;;14.43;13.93;;;8.70;99.90;;;;;;5088538;28;20458;-70
2023/11/21 07:52:00;;;;;;;14.87;14.37;;;8.70;99.90;;;;;;5067746;28;20450;-71
2023/11/21 07:54:27;;;;;;;14.90;14.40;;;8.70;99.90;;;;;;5072414;28;20458;-70
2023/11/21 07:56:55;;;;;;;15.33;14.73;;;8.80;99.90;;;;;;5072967;28;20490;-71
2023/11/21 07:59:22;;;;;;;14.50;14.00;;;8.90;99.90;;;;;;5077543;28;20562;-70
2023/11/21 08:01:50;;;;;;;14.93;14.43;;;8.80;99.90;;;;;;5078122;28;20462;-70
2023/11/21 08:04:17;;;;;;;14.70;14.20;;;8.90;99.90;;;;;;5077057;28;20874;-71
2023/11/21 08:06:43;;;;;;;15.27;14.67;;;8.90;99.90;;;;;;5073582;28;21042;-71
2023/11/21 08:09:12;;;;;;;15.10;14.60;;;9.00;99.90;;;;;;5077128;28;21073;-70
2023/11/21 08:11:39;;;;;;;14.50;14.00;;;9.10;99.90;;;;;;5077746;28;21427;-71
2023/11/21 08:14:06;;;;;;;14.80;14.30;;;9.10;99.90;;;;;;5077577;28;20989;-71
2023/11/21 08:16:33;;;;;;;14.30;13.80;;;9.20;99.90;;;;;;5078333;28;20490;-70
2023/11/21 08:19:00;;;;;;;14.50;14.00;;;9.10;99.90;;;;;;5077475;28;20603;-70
2023/11/21 08:21:28;;;;;;;13.90;13.40;;;9.20;99.90;;;;;;5072663;28;20462;-70
2023/11/21 08:23:56;;;;;;;14.50;14.00;;;9.20;99.90;;;;;;5072703;28;20494;-71
2023/11/21 08:26:25;;;;;;;13.73;13.33;;;9.30;99.90;;;;;;5077794;28;21337;-70
2023/11/21 08:28:53;;;;;;;14.23;13.73;;;9.20;99.90;;;;;;5074163;28;20455;-71
2023/11/21 08:31:25;;;;;;;14.67;14.17;;;9.30;99.90;;;;;;5064670;28;20467;-70
2023/11/21 08:33:55;;;;;;;14.27;13.77;;;9.30;99.90;;;;;;5073091;28;20475;-71
2023/11/21 08:36:23;;;;;;;13.37;12.97;;;9.40;99.90;;;;;;5074127;28;21033;-69
2023/11/21 08:38:52;;;;;;;14.07;13.57;;;9.20;99.90;;;;;;5076318;28;20460;-70
2023/11/21 08:41:21;;;;;;;14.50;14.00;;;9.30;99.90;;;;;;5070498;28;20464;-71
2023/11/21 08:43:50;;;;;;;13.33;12.93;;;9.40;99.90;;;;;;5074153;28;20467;-69
2023/11/21 08:46:18;;;;;;;14.47;13.97;;;9.40;99.90;;;;;;5072961;28;20526;-70
2023/11/21 08:48:44;;;;;;;13.37;12.97;;;9.50;99.90;;;;;;5074273;28;20459;-70
2023/11/21 08:51:12;;;;;;;12.80;12.40;;;9.40;99.90;;;;;;5069736;28;20470;-70
2023/11/21 08:53:39;;;;;;;13.73;13.33;;;9.50;99.90;;;;;;5073973;28;20903;-71
2023/11/21 08:56:09;;;;;;;13.47;13.07;;;9.50;99.90;;;;;;5070535;28;20463;-70
2023/11/21 08:58:36;;;;;;;13.20;12.80;;;9.40;99.90;;;;;;5073686;28;20512;-72
2023/11/21 09:01:05;;;;;;;13.50;13.10;;;9.40;99.90;;;;;;5075631;28;20455;-70
2023/11/21 09:03:33;;;;;;;14.40;13.90;;;9.40;99.90;;;;;;5072250;28;20467;-70
2023/11/21 09:06:00;;;;;;;14.80;14.30;;;9.50;99.90;;;;;;5071798;28;20534;-69
2023/11/21 09:08:29;;;;;;;14.90;14.40;;;9.60;99.90;;;;;;5074059;28;20494;-70
2023/11/21 09:10:56;;;;;;;14.73;14.23;;;9.70;99.90;;;;;;5073116;28;20465;-70
2023/11/21 09:13:24;;;;;;;14.83;14.33;;;9.80;99.90;;;;;;5069417;28;20941;-71
2023/11/21 09:15:52;;;;;;;14.20;13.70;;;9.80;99.90;;;;;;5073627;28;20753;-70
2023/11/21 09:18:20;;;;;;;14.23;13.73;;;9.80;99.90;;;;;;5071475;28;20455;-70
2023/11/21 09:20:47;;;;;;;14.40;13.90;;;9.80;99.90;;;;;;5069807;28;20837;-70
2023/11/21 09:23:13;;;;;;;14.03;13.53;;;9.90;99.90;;;;;;5071232;28;20831;-71
2023/11/21 09:25:45;;;;;;;13.90;13.40;;;9.70;99.90;;;;;;5071499;28;21156;-72
2023/11/21 09:28:13;;;;;;;14.63;14.13;;;9.70;99.90;;;;;;5074694;28;20458;-69
2023/11/21 09:30:40;;;;;;;14.63;14.13;;;9.90;99.90;;;;;;5071083;28;20493;-70
2023/11/21 09:33:10;;;;;;;13.50;13.10;;;10.00;99.90;;;;;;5072205;28;20554;-72
2023/11/21 09:35:39;;;;;;;13.27;12.87;;;9.90;99.90;;;;;;5076152;28;20506;-70
2023/11/21 09:38:09;;;;;;;14.00;13.50;;;9.60;99.90;;;;;;5072591;28;20822;-72
2023/11/21 09:40:37;;;;;;;14.60;14.10;;;9.70;99.90;;;;;;5073198;28;21070;-70
2023/11/21 09:43:08;;;;;;;13.50;13.10;;;9.90;99.90;;;;;;5070683;28;20478;-72
2023/11/21 09:45:36;;;;;;;13.70;13.20;;;9.80;99.90;;;;;;5077052;28;20989;-70
2023/11/21 09:48:05;;;;;;;14.00;13.50;;;9.80;99.90;;;;;;5074660;28;20495;-70
2023/11/21 09:50:33;;;;;;;14.33;13.83;;;9.80;99.90;;;;;;5074958;28;20459;-70
2023/11/21 09:53:14;;;;;;;15.47;14.87;;;9.90;99.90;;;;;;5072362;28;20574;-72
2023/11/21 09:55:43;;;;;;;13.93;13.43;;;10.20;99.90;;;;;;5073219;28;20557;-73
2023/11/21 09:58:12;;;;;;;14.37;13.87;;;10.20;99.90;;;;;;5072630;28;20510;-71
2023/11/21 10:00:41;;;;;;;15.00;14.40;;;10.30;99.90;;;;;;5076731;28;20513;-70
2023/11/21 10:03:09;;;;;;;14.33;13.83;;;10.40;99.90;;;;;;5073968;28;20874;-71
2023/11/21 10:05:36;;;;;;;14.60;14.00;;;10.40;99.90;;;;;;5076943;28;21015;-70
2023/11/21 10:08:09;;;;;;;13.77;13.27;;;10.50;99.90;;;;;;5075957;28;20487;-70
2023/11/21 10:10:37;;;;;;;14.37;13.87;;;10.40;99.90;;;;;;5074219;28;20533;-70
2023/11/21 10:13:07;;;;;;;13.60;13.10;;;10.50;99.90;;;;;;5072981;28;20460;-69
2023/11/21 10:15:35;;;;;;;13.83;13.33;;;10.50;99.90;;;;;;5072908;28;20548;-69
2023/11/21 10:18:04;;;;;;;14.50;14.00;;;10.30;99.90;;;;;;5067522;28;20463;-71
2023/11/21 10:20:33;;;;;;;12.60;12.20;;;10.30;99.90;;;;;;5073644;28;20458;-71
2023/11/21 10:23:02;;;;;;;12.67;12.27;;;10.10;99.90;;;;;;5074917;28;21048;-72
2023/11/21 10:25:31;;;;;;;12.70;12.30;;;10.10;99.90;;;;;;5074161;28;20483;-72
2023/11/21 10:28:01;;;;;;;13.33;12.83;;;10.00;99.90;;;;;;5074405;28;20494;-70
2023/11/21 10:30:36;;;;;;;12.97;12.57;;;10.10;99.90;;;;;;5073959;28;20462;-70
2023/11/21 10:33:04;;;;;;;12.50;12.10;;;10.10;99.90;;;;;;5072608;28;20459;-69
2023/11/21 10:35:46;;;;;;;12.20;11.80;;;10.10;99.90;;;;;;5071329;28;20463;-70
2023/11/21 10:38:13;;;;;;;13.20;12.70;;;10.10;99.90;;;;;;5073445;28;20841;-69
2023/11/21 10:40:42;;;;;;;13.30;12.80;;;10.20;99.90;;;;;;5073441;28;20500;-70
2023/11/21 10:43:10;;;;;;;13.17;12.70;;;10.30;99.90;;;;;;5074050;28;21051;-72
2023/11/21 10:45:38;;;;;;;13.50;13.00;;;10.50;99.90;;;;;;5068737;28;20463;-69
2023/11/21 10:48:08;;;;;;;13.13;12.70;;;10.60;99.90;;;;;;5069967;28;20482;-69
2023/11/21 10:50:35;;;;;;;13.33;12.83;;;10.70;99.90;;;;;;5075785;28;20541;-70
2023/11/21 10:53:04;;;;;;;13.03;12.63;;;10.70;99.90;;;;;;5067550;28;20466;-70
2023/11/21 10:55:32;;;;;;;13.40;12.90;;;10.80;99.90;;;;;;5073044;28;21019;-70
2023/11/21 10:58:02;;;;;;;13.07;12.67;;;10.90;99.90;;;;;;5073935;28;20956;-70
2023/11/21 11:00:29;;;;;;;12.50;12.10;;;10.90;99.90;;;;;;5073305;28;20527;-69
2023/11/21 11:02:56;;;;;;;12.97;12.57;;;10.70;99.90;;;;;;5074242;28;20950;-69
2023/11/21 11:05:25;;;;;;;12.90;12.50;;;11.10;99.90;;;;;;5077331;28;20508;-70
2023/11/21 11:07:59;;;;;;;12.67;12.27;;;11.30;99.90;;;;;;5075280;28;20598;-71
2023/11/21 11:10:27;;;;;;;12.63;12.23;;;11.40;99.90;;;;;;5079093;28;20549;-71
2023/11/21 11:12:55;;;;;;;12.57;12.17;;;11.60;99.90;;;;;;5081336;28;20465;-71
2023/11/21 11:15:23;;;;;;;12.80;12.40;;;11.70;99.90;;;;;;5075337;28;20884;-69
2023/11/21 11:17:51;;;;;;;13.00;12.60;;;11.70;99.90;;;;;;5074439;28;20459;-70
2023/11/21 11:20:20;;;;;;;12.90;12.50;;;11.80;99.90;;;;;;5080011;28;20799;-72
2023/11/21 11:23:00;;;;;;;12.90;12.50;;;11.80;99.90;;;;;;5074663;28;21381;-70
2023/11/21 11:25:39;;;;;;;13.07;12.67;;;11.60;99.90;;;;;;5078333;28;20500;-70
2023/11/21 11:28:09;;;;;;;12.90;12.50;;;11.70;99.90;;;;;;5075681;28;21106;-70
2023/11/21 11:31:03;;;;;;;12.90;12.50;;;11.80;99.90;;;;;;5076692;28;20461;-71
2023/11/21 11:33:37;;;;;;;13.27;12.77;;;11.70;99.90;;;;;;5076086;28;20474;-71
2023/11/21 11:36:11;;;;;;;13.70;13.20;;;11.50;99.90;;;;;;5077116;28;20500;-72
2023/11/21 11:38:38;;;;;;;13.50;13.00;;;11.80;99.90;;;;;;5074041;28;20961;-70
2023/11/21 11:41:06;;;;;;;12.90;12.50;;;11.70;99.90;;;;;;5077261;28;20545;-71
2023/11/21 11:43:41;;;;;;;13.13;12.73;;;11.80;99.90;;;;;;5074493;28;20458;-70
2023/11/21 11:46:12;;;;;;;13.10;12.70;;;12.00;99.90;;;;;;5071628;28;20462;-70
2023/11/21 11:48:40;;;;;;;13.20;12.80;;;12.20;99.90;;;;;;5076386;28;20528;-70
2023/11/21 11:51:11;;;;;;;12.80;12.40;;;12.50;99.90;;;;;;5072611;28;20551;-71
2023/11/21 11:53:41;;;;;;;13.20;12.80;;;12.90;99.90;;;;;;5076403;28;20477;-70
2023/11/21 11:56:26;;;;;;;12.60;12.20;;;13.20;99.90;;;;;;5074809;28;20831;-71
2023/11/21 11:58:56;;;;;;;13.10;12.70;;;13.30;99.90;;;;;;5072588;28;20969;-71
2023/11/21 12:01:26;;;;;;;12.93;12.53;;;13.30;99.90;;;;;;5075725;28;20487;-71
2023/11/21 12:04:33;;;;;;;13.00;12.60;;;13.40;99.90;;;;;;5071626;28;20469;-70
2023/11/21 12:07:03;;;;;;;13.00;12.60;;;13.40;99.90;;;;;;5076969;28;20487;-70
2023/11/21 12:09:32;;;;;;;13.10;12.70;;;13.50;99.90;;;;;;5074073;28;20460;-72
2023/11/21 12:11:59;;;;;;;13.00;12.60;;;13.70;99.90;;;;;;5075361;28;20565;-71
2023/11/21 12:14:27;;;;;;;12.87;12.47;;;14.00;99.90;;;;;;5073058;28;20463;-74
2023/11/21 12:16:56;;;;;;;13.40;13.00;;;13.90;99.90;;;;;;5072165;28;21012;-70
2023/11/21 12:19:23;;;;;;;13.23;12.83;;;14.00;99.90;;;;;;5073080;28;20477;-70
2023/11/21 12:21:51;;;;;;;13.60;13.10;;;14.00;99.90;;;;;;5074198;28;20571;-73
2023/11/21 12:24:19;;;;;;;14.07;13.57;;;13.70;99.90;;;;;;5068471;28;20510;-70
2023/11/21 12:26:46;;;;;;;13.50;13.00;;;13.60;99.90;;;;;;5054554;28;20469;-70
2023/11/21 12:29:13;;;;;;;13.90;13.40;;;13.70;99.90;;;;;;5050482;28;20473;-73
2023/11/21 12:31:41;;;;;;;13.60;13.10;;;13.70;99.90;;;;;;5054354;28;20968;-71
2023/11/21 12:34:11;;;;;;;13.10;12.70;;;13.80;99.90;;;;;;5055303;28;20917;-70
2023/11/21 12:36:39;;;;;;;13.90;13.40;;;13.60;99.90;;;;;;5053356;28;20465;-70
2023/11/21 12:39:08;;;;;;;13.63;13.13;;;13.60;99.90;;;;;;5055381;28;20471;-71
2023/11/21 12:41:35;;;;;;;13.83;13.33;;;13.40;99.90;;;;;;5054005;28;20457;-71